Time;durP1;ratioP1;P1;durP2;ratioP2;P2;SDS_P1;SDS_P2;PMS_P1;PMS_P2;Temp;Humidity;BMP_temperature;BMP_pressure;BME280_temperature;BME280_humidity;BME280_pressure;Samples;Min_cycle;Max_cycle;Signal;HPM_P1;HPM_P2
2021/10/18 00:00:51;;;;;;;10.80;6.43;;;;;;;11.70;100.00;98122.41;5052384;28;20480;-80
2021/10/18 00:03:18;;;;;;;7.18;3.75;;;;;;;11.79;100.00;98121.88;5055956;28;20424;-80
2021/10/18 00:05:43;;;;;;;6.32;3.97;;;;;;;11.77;100.00;98115.75;5035666;28;20033;-80
2021/10/18 00:08:09;;;;;;;7.20;4.10;;;;;;;11.76;100.00;98114.88;5052458;28;20029;-79
2021/10/18 00:10:35;;;;;;;6.13;4.03;;;;;;;11.62;100.00;98113.91;5055300;28;20034;-80
2021/10/18 00:13:00;;;;;;;4.65;3.85;;;;;;;11.72;100.00;98115.16;5055594;28;20052;-79
2021/10/18 00:15:26;;;;;;;15.23;5.50;;;;;;;11.78;100.00;98114.81;5052438;28;20068;-79
2021/10/18 00:17:52;;;;;;;6.45;3.90;;;;;;;11.78;100.00;98110.28;5055639;28;20485;-80
2021/10/18 00:20:17;;;;;;;5.80;3.28;;;;;;;11.72;100.00;98115.16;5039222;28;20028;-80
2021/10/18 00:22:44;;;;;;;8.88;4.55;;;;;;;11.62;100.00;98109.41;5038505;28;20174;-80
2021/10/18 00:25:10;;;;;;;3.13;2.83;;;;;;;11.69;100.00;98112.63;5035777;28;20039;-81
2021/10/18 00:27:35;;;;;;;7.20;3.17;;;;;;;11.66;100.00;98104.75;5035572;28;20423;-79
2021/10/18 00:30:02;;;;;;;7.80;4.28;;;;;;;11.58;100.00;98107.00;5051801;28;20029;-79
2021/10/18 00:32:27;;;;;;;8.75;4.70;;;;;;;11.48;100.00;98097.72;5055219;28;20404;-79
2021/10/18 00:34:53;;;;;;;5.50;4.10;;;;;;;11.50;100.00;98101.22;5053655;28;20033;-79
2021/10/18 00:37:19;;;;;;;11.18;4.03;;;;;;;11.56;100.00;98095.50;5055354;28;20032;-79
2021/10/18 00:39:44;;;;;;;4.50;3.95;;;;;;;11.53;100.00;98095.69;5035052;28;20028;-80
2021/10/18 00:42:10;;;;;;;4.25;2.60;;;;;;;11.47;100.00;98098.72;5051959;28;20112;-79
2021/10/18 00:44:36;;;;;;;11.60;5.25;;;;;;;11.52;100.00;98091.25;5051926;28;20067;-79
2021/10/18 00:47:02;;;;;;;5.13;3.50;;;;;;;11.64;100.00;98101.28;5035042;28;20048;-80
2021/10/18 00:49:29;;;;;;;6.20;4.28;;;;;;;11.68;100.00;98102.84;5038604;28;20493;-80
2021/10/18 00:51:55;;;;;;;21.70;7.55;;;;;;;11.66;100.00;98102.91;5052145;28;20118;-80
2021/10/18 00:54:20;;;;;;;4.95;3.00;;;;;;;11.74;100.00;98102.53;5051619;28;20033;-79
2021/10/18 00:56:46;;;;;;;7.32;3.67;;;;;;;11.66;100.00;98094.88;5051529;28;20460;-78
2021/10/18 00:59:12;;;;;;;6.10;3.17;;;;;;;11.68;100.00;98097.47;5051845;28;20036;-80
2021/10/18 01:01:38;;;;;;;5.75;3.08;;;;;;;11.68;100.00;98092.13;5051620;28;20032;-79
2021/10/18 01:04:04;;;;;;;7.55;3.25;;;;;;;11.57;100.00;98091.84;5051247;28;20033;-80
2021/10/18 01:06:30;;;;;;;11.43;4.45;;;;;;;11.66;100.00;98096.72;5051466;28;20025;-79
2021/10/18 01:08:56;;;;;;;7.53;3.90;;;;;;;11.59;100.00;98098.00;5054523;28;20453;-79
2021/10/18 01:11:21;;;;;;;5.43;2.10;;;;;;;11.56;100.00;98091.00;5051181;28;20049;-79
2021/10/18 01:13:47;;;;;;;7.22;3.90;;;;;;;11.57;100.00;98089.16;5054406;28;20039;-80
2021/10/18 01:16:15;;;;;;;17.58;3.55;;;;;;;11.49;100.00;98086.94;5054690;28;20037;-79
2021/10/18 01:18:41;;;;;;;6.93;3.45;;;;;;;11.51;100.00;98087.72;5071360;28;20051;-79
2021/10/18 01:21:06;;;;;;;3.53;2.80;;;;;;;11.65;100.00;98097.66;5054178;28;20086;-79
2021/10/18 01:23:32;;;;;;;7.18;4.30;;;;;;;11.59;100.00;98092.66;5051258;28;20108;-78
2021/10/18 01:25:58;;;;;;;6.38;3.78;;;;;;;11.60;100.00;98099.72;5051026;28;20039;-78
2021/10/18 01:28:23;;;;;;;17.80;3.65;;;;;;;11.50;100.00;98088.69;5037706;28;20032;-78
2021/10/18 01:30:49;;;;;;;4.53;2.63;;;;;;;11.56;100.00;98096.38;5037655;28;20036;-79
2021/10/18 01:33:15;;;;;;;6.45;4.80;;;;;;;11.49;100.00;98091.44;5053957;28;20024;-80
2021/10/18 01:35:41;;;;;;;8.43;4.20;;;;;;;11.50;100.00;98098.53;5050719;28;20037;-80
2021/10/18 01:38:07;;;;;;;6.47;3.33;;;;;;;11.44;100.00;98087.19;5052490;28;20534;-80
2021/10/18 01:40:32;;;;;;;4.72;1.95;;;;;;;11.62;100.00;98103.19;5050734;28;20029;-80
2021/10/18 01:42:58;;;;;;;8.52;4.32;;;;;;;11.55;100.00;98091.97;5053186;28;20036;-79
2021/10/18 01:45:24;;;;;;;10.23;3.30;;;;;;;11.41;100.00;98089.22;5053871;28;20043;-79
2021/10/18 01:47:49;;;;;;;6.43;3.28;;;;;;;11.39;100.00;98077.69;5052521;28;20037;-79
2021/10/18 01:50:20;;;;;;;8.10;4.03;;;;;;;11.43;100.00;98082.81;5034265;28;20091;-79
2021/10/18 01:52:47;;;;;;;6.78;3.15;;;;;;;11.46;100.00;98091.63;5051850;28;20496;-79
2021/10/18 01:55:14;;;;;;;2.97;2.63;;;;;;;11.49;100.00;98096.78;5051397;28;20418;-79
2021/10/18 01:57:40;;;;;;;6.07;3.45;;;;;;;11.60;100.00;98097.91;5053078;28;20462;-79
2021/10/18 02:00:07;;;;;;;4.88;3.63;;;;;;;11.48;100.00;98089.69;5050192;28;20029;-79
2021/10/18 02:02:32;;;;;;;8.55;2.58;;;;;;;11.48;100.00;98095.06;5033881;28;20036;-79
2021/10/18 02:04:58;;;;;;;10.93;3.15;;;;;;;11.45;100.00;98093.41;5050468;28;20036;-79
2021/10/18 02:07:23;;;;;;;10.30;5.00;;;;;;;11.48;100.00;98095.06;5050342;28;20040;-79
2021/10/18 02:09:52;;;;;;;7.30;3.80;;;;;;;11.53;100.00;98103.72;5051870;28;20028;-80
2021/10/18 02:12:21;;;;;;;3.42;2.38;;;;;;;11.45;100.00;98088.06;5036364;28;20044;-81
2021/10/18 02:14:47;;;;;;;9.57;4.18;;;;;;;11.47;100.00;98096.03;5051551;28;20028;-79
2021/10/18 02:17:12;;;;;;;8.45;3.45;;;;;;;11.47;100.00;98093.34;5051578;28;20021;-81
2021/10/18 02:19:38;;;;;;;2.30;2.13;;;;;;;11.58;100.00;98098.94;5053631;28;20024;-82
2021/10/18 02:22:03;;;;;;;5.70;2.97;;;;;;;11.61;100.00;98096.09;5050288;28;20082;-81
2021/10/18 02:24:29;;;;;;;12.48;2.47;;;;;;;11.58;100.00;98104.31;5050030;28;20028;-87
2021/10/18 02:26:55;;;;;;;4.72;2.72;;;;;;;11.62;100.00;98101.38;5039638;28;20111;-81
2021/10/18 02:29:20;;;;;;;4.70;4.05;;;;;;;11.63;100.00;98100.41;5053051;28;20025;-80
2021/10/18 02:31:46;;;;;;;6.03;3.13;;;;;;;11.59;100.00;98101.56;5049915;28;20025;-81
2021/10/18 02:34:12;;;;;;;6.53;4.28;;;;;;;11.67;100.00;98103.78;5052313;28;20024;-81
2021/10/18 02:36:37;;;;;;;5.10;3.25;;;;;;;11.53;100.00;98098.34;5049923;28;20024;-80
2021/10/18 02:39:03;;;;;;;5.13;3.40;;;;;;;11.41;100.00;98102.59;5052142;28;20028;-80
2021/10/18 02:41:29;;;;;;;19.40;4.40;;;;;;;11.42;100.00;98097.16;5033295;28;20416;-81
2021/10/18 02:43:54;;;;;;;15.32;5.32;;;;;;;11.59;100.00;98103.38;5050820;28;20029;-80
2021/10/18 02:46:20;;;;;;;4.70;3.50;;;;;;;11.60;100.00;98115.78;5053111;28;20040;-81
2021/10/18 02:48:46;;;;;;;6.80;3.63;;;;;;;11.63;100.00;98115.66;5036558;28;20455;-81
2021/10/18 02:51:12;;;;;;;6.18;4.47;;;;;;;11.60;100.00;98111.31;5036280;28;20036;-82
2021/10/18 02:53:37;;;;;;;4.93;3.28;;;;;;;11.63;100.00;98113.81;5049749;28;20024;-82
2021/10/18 02:56:03;;;;;;;7.53;3.53;;;;;;;11.60;100.00;98113.97;5054920;28;20051;-80
2021/10/18 02:58:29;;;;;;;5.28;3.03;;;;;;;11.62;100.00;98111.22;5056956;28;20024;-80
2021/10/18 03:00:54;;;;;;;9.13;3.30;;;;;;;11.65;100.00;98117.28;5056237;28;20024;-81
2021/10/18 03:03:20;;;;;;;8.35;2.45;;;;;;;11.59;100.00;98109.59;5055221;28;20040;-81
2021/10/18 03:05:46;;;;;;;10.30;2.33;;;;;;;11.66;100.00;98104.75;5053634;28;20029;-81
2021/10/18 03:08:11;;;;;;;9.00;4.15;;;;;;;11.59;100.00;98114.09;5053939;28;20112;-80
2021/10/18 03:10:40;;;;;;;6.22;4.53;;;;;;;11.51;100.00;98100.25;5048811;28;20021;-81
2021/10/18 03:13:06;;;;;;;4.00;3.60;;;;;;;11.64;100.00;98117.34;5056230;28;20469;-81
2021/10/18 03:15:32;;;;;;;6.43;3.63;;;;;;;11.50;100.00;98099.41;5056413;28;20029;-81
2021/10/18 03:17:58;;;;;;;6.88;3.85;;;;;;;11.48;100.00;98105.78;5036977;28;20090;-81
2021/10/18 03:20:23;;;;;;;12.10;2.88;;;;;;;11.44;100.00;98113.16;5054467;28;20032;-81
2021/10/18 03:22:49;;;;;;;9.35;4.00;;;;;;;11.50;100.00;98109.25;5056362;28;20020;-81
2021/10/18 03:25:15;;;;;;;9.25;6.22;;;;;;;11.49;100.00;98112.88;5055659;28;20056;-81
2021/10/18 03:27:40;;;;;;;4.78;3.05;;;;;;;11.50;100.00;98119.97;5048401;28;20039;-81
2021/10/18 03:30:06;;;;;;;9.98;5.25;;;;;;;11.42;100.00;98120.38;5037636;28;20484;-81
2021/10/18 03:32:32;;;;;;;7.70;4.15;;;;;;;11.43;100.00;98119.44;5038413;28;20028;-81
2021/10/18 03:34:58;;;;;;;6.68;3.30;;;;;;;11.42;100.00;98115.91;5039580;28;20506;-82
2021/10/18 03:37:24;;;;;;;5.15;4.25;;;;;;;11.58;100.00;98123.06;5056811;28;20028;-88
2021/10/18 03:39:49;;;;;;;3.35;2.35;;;;;;;11.58;100.00;98123.94;5045483;28;20081;-90
2021/10/18 03:42:15;;;;;;;23.98;4.38;;;;;;;11.47;100.00;98122.81;5038633;28;20028;-88
2021/10/18 03:44:41;;;;;;;5.03;3.95;;;;;;;11.33;100.00;98121.78;5054922;28;20218;-88
2021/10/18 03:47:06;;;;;;;10.05;3.67;;;;;;;11.40;100.00;98116.94;5038357;28;20507;-86
2021/10/18 03:49:32;;;;;;;11.95;4.82;;;;;;;11.46;100.00;98126.44;5054537;28;20040;-87
2021/10/18 03:51:58;;;;;;;12.93;3.92;;;;;;;11.45;100.00;98122.88;5038598;28;20021;-87
2021/10/18 03:54:24;;;;;;;7.07;4.57;;;;;;;11.45;100.00;98122.88;5054340;28;20025;-88
2021/10/18 03:56:49;;;;;;;22.13;4.50;;;;;;;11.41;100.00;98121.34;5038083;28;20020;-88
2021/10/18 03:59:18;;;;;;;7.32;5.38;;;;;;;11.40;100.00;98127.66;5054710;28;20029;-88
2021/10/18 04:01:43;;;;;;;21.00;4.35;;;;;;;11.44;100.00;98132.72;5055024;28;20027;-88
2021/10/18 04:04:09;;;;;;;7.32;3.30;;;;;;;11.33;100.00;98113.72;5054954;28;20108;-88
2021/10/18 04:06:35;;;;;;;5.88;3.97;;;;;;;11.49;100.00;98135.16;5058349;28;20059;-87
2021/10/18 04:09:00;;;;;;;4.90;4.25;;;;;;;11.50;100.00;98144.06;5057640;28;20035;-88
2021/10/18 04:11:26;;;;;;;5.88;3.25;;;;;;;11.49;100.00;98129.81;5057492;28;20453;-87
2021/10/18 04:13:52;;;;;;;6.43;2.95;;;;;;;11.63;100.00;98153.16;5044204;28;20410;-87
2021/10/18 04:16:17;;;;;;;4.32;3.78;;;;;;;11.61;100.00;98136.28;5057166;28;20048;-87
2021/10/18 04:18:43;;;;;;;3.45;2.65;;;;;;;11.60;100.00;98129.19;5041937;28;20514;-89
2021/10/18 04:21:09;;;;;;;4.75;2.47;;;;;;;11.63;100.00;98143.28;5040598;28;20017;-88
2021/10/18 04:23:34;;;;;;;18.10;4.78;;;;;;;11.64;100.00;98133.44;5038662;28;20033;-89
2021/10/18 04:26:00;;;;;;;8.60;2.65;;;;;;;11.74;100.00;98140.03;5058868;28;20021;-89
2021/10/18 04:28:27;;;;;;;9.30;3.47;;;;;;;11.76;100.00;98135.44;5043264;28;20048;-90
2021/10/18 04:30:53;;;;;;;15.85;3.22;;;;;;;11.77;100.00;98142.53;5042511;28;20024;-90
2021/10/18 04:33:19;;;;;;;4.05;3.15;;;;;;;11.76;100.00;98143.47;5042416;28;20088;-90
2021/10/18 04:35:46;;;;;;;6.28;3.67;;;;;;;11.67;100.00;98141.28;5042527;28;20563;-90
2021/10/18 04:38:11;;;;;;;7.88;4.22;;;;;;;11.64;100.00;98134.31;5060058;28;20600;-90
2021/10/18 04:40:37;;;;;;;13.48;2.83;;;;;;;11.46;100.00;98139.84;5058133;28;20020;-89
2021/10/18 04:43:03;;;;;;;5.10;3.30;;;;;;;11.35;100.00;98130.56;5041717;28;20035;-89
2021/10/18 04:45:28;;;;;;;10.02;5.63;;;;;;;11.59;100.00;98148.91;5059015;28;20120;-91
2021/10/18 04:47:54;;;;;;;6.45;3.92;;;;;;;11.70;100.00;98141.16;5042820;28;20024;-91
2021/10/18 04:50:22;;;;;;;5.07;3.28;;;;;;;11.69;100.00;98139.41;5058290;28;20392;-90
2021/10/18 04:52:48;;;;;;;3.63;3.17;;;;;;;11.63;100.00;98129.88;5054366;28;20035;-90
2021/10/18 04:55:14;;;;;;;8.77;4.32;;;;;;;11.66;100.00;98142.28;5055018;28;20025;-89
2021/10/18 04:57:56;;;;;;;17.60;6.15;;;;;;;11.62;100.00;98143.38;5055907;28;20052;-88
2021/10/18 05:00:23;;;;;;;5.00;3.33;;;;;;;11.59;100.00;98140.88;5054523;28;20025;-89
2021/10/18 05:02:49;;;;;;;5.93;3.97;;;;;;;11.61;100.00;98147.00;5056436;28;20112;-88
2021/10/18 05:05:14;;;;;;;7.15;3.55;;;;;;;11.59;100.00;98151.59;5057703;28;20028;-89
2021/10/18 05:07:40;;;;;;;10.50;3.08;;;;;;;11.71;100.00;98159.84;5058714;28;20054;-90
2021/10/18 05:10:11;;;;;;;4.15;3.42;;;;;;;11.65;100.00;98168.19;5041443;28;20402;-90
2021/10/18 05:12:37;;;;;;;3.38;2.97;;;;;;;11.58;100.00;98155.22;5054291;28;20132;-90
2021/10/18 05:15:03;;;;;;;3.33;2.78;;;;;;;11.56;100.00;98157.13;5038016;28;20024;-91
2021/10/18 05:17:29;;;;;;;14.68;3.65;;;;;;;11.58;100.00;98149.84;5039633;28;20488;-90
2021/10/18 05:19:55;;;;;;;10.45;3.58;;;;;;;11.64;100.00;98165.59;5053690;28;20029;-90
2021/10/18 05:22:20;;;;;;;2.63;1.88;;;;;;;11.71;100.00;98167.03;5038900;28;20025;-91
2021/10/18 05:24:46;;;;;;;5.38;2.85;;;;;;;11.68;100.00;98167.16;5039932;28;20025;-91
2021/10/18 05:27:11;;;;;;;7.00;2.80;;;;;;;11.68;100.00;98167.16;5054982;28;20036;-89
2021/10/18 05:29:37;;;;;;;9.70;4.60;;;;;;;11.67;100.00;98166.28;5038416;28;20049;-90
2021/10/18 05:32:04;;;;;;;5.85;2.97;;;;;;;11.72;100.00;98174.94;5054646;28;20035;-91
2021/10/18 05:34:31;;;;;;;6.45;3.53;;;;;;;11.78;100.00;98176.44;5053982;28;20090;-91
2021/10/18 05:36:56;;;;;;;9.13;4.30;;;;;;;11.84;100.00;98181.47;5038132;28;20499;-90
2021/10/18 05:39:22;;;;;;;5.40;3.15;;;;;;;11.86;100.00;98171.50;5039690;28;20033;-91
2021/10/18 05:41:47;;;;;;;4.43;3.25;;;;;;;11.98;100.00;98188.69;5057435;28;20025;-91
2021/10/18 05:44:13;;;;;;;16.30;3.45;;;;;;;12.03;100.00;98200.88;5042117;28;20029;-91
2021/10/18 05:46:39;;;;;;;6.63;3.25;;;;;;;12.02;100.00;98203.66;5038298;28;20036;-91
2021/10/18 05:49:05;;;;;;;6.43;4.78;;;;;;;12.05;100.00;98185.59;5054839;28;20029;-91
2021/10/18 05:51:31;;;;;;;9.23;4.43;;;;;;;11.91;100.00;98185.50;5039763;28;20064;-91
2021/10/18 05:53:58;;;;;;;5.88;3.53;;;;;;;11.82;100.00;98192.25;5057160;28;20120;-91
2021/10/18 05:56:23;;;;;;;17.95;6.03;;;;;;;11.73;100.00;98183.88;5055699;28;20039;-92
2021/10/18 05:58:49;;;;;;;10.70;5.55;;;;;;;11.84;100.00;98206.41;5054464;28;20131;-89
2021/10/18 06:01:18;;;;;;;4.53;2.92;;;;;;;11.70;100.00;98182.22;5037645;28;20059;-88
2021/10/18 06:03:43;;;;;;;18.42;3.70;;;;;;;11.77;100.00;98194.34;5039958;28;20028;-89
2021/10/18 06:06:12;;;;;;;4.03;3.25;;;;;;;11.80;100.00;98196.84;5040002;28;20063;-90
2021/10/18 06:08:38;;;;;;;4.13;3.33;;;;;;;11.88;100.00;98202.63;5056308;28;20032;-90
2021/10/18 06:11:04;;;;;;;7.90;3.13;;;;;;;12.06;100.00;98215.97;5042694;28;20033;-92
2021/10/18 06:13:30;;;;;;;7.38;4.30;;;;;;;12.12;100.00;98226.34;5060613;28;20495;-92
2021/10/18 06:15:59;;;;;;;11.00;2.85;;;;;;;12.23;100.00;98226.56;5056802;28;20510;-92
2021/10/18 06:18:25;;;;;;;7.97;3.55;;;;;;;12.28;100.00;98232.53;5040123;28;20017;-90
2021/10/18 06:20:53;;;;;;;9.80;4.13;;;;;;;12.43;100.00;98239.69;5038896;28;20541;-92
2021/10/18 06:23:26;;;;;;;4.32;3.67;;;;;;;12.54;100.00;98244.44;5039626;28;20025;-91
2021/10/18 06:25:53;;;;;;;61.13;20.73;;;;;;;12.49;100.00;98225.91;5059757;28;20416;-90
2021/10/18 06:28:22;;;;;;;11.98;6.35;;;;;;;12.48;100.00;98219.69;5043268;28;20112;-92
2021/10/18 06:30:47;;;;;;;10.75;6.65;;;;;;;12.52;100.00;98214.97;5057541;28;20029;-91
2021/10/18 06:33:13;;;;;;;10.73;5.30;;;;;;;12.60;100.00;98223.47;5055949;28;20124;-92
2021/10/18 06:36:14;;;;;;;6.82;4.70;;;;;;;12.62;100.00;98244.84;5040608;28;20031;-89
2021/10/18 06:38:40;;;;;;;5.68;2.75;;;;;;;12.50;100.00;98227.63;5051899;28;20045;-92
2021/10/18 06:41:07;;;;;;;9.63;3.80;;;;;;;12.55;100.00;98230.06;5056319;28;20041;-90
2021/10/18 06:43:33;;;;;;;7.45;4.93;;;;;;;12.68;100.00;98248.03;5057003;28;20510;-91
2021/10/18 06:45:59;;;;;;;8.32;5.55;;;;;;;12.73;100.00;98251.31;5043811;28;20082;-91
2021/10/18 06:48:25;;;;;;;13.10;5.03;;;;;;;12.60;100.00;98244.06;5058138;28;20423;-90
2021/10/18 06:50:50;;;;;;;41.08;22.83;;;;;;;12.75;100.00;98260.13;5041935;28;20090;-91
2021/10/18 06:53:19;;;;;;;9.82;6.72;;;;;;;12.75;100.00;98246.72;5038087;28;20096;-90
2021/10/18 06:55:45;;;;;;;7.20;4.72;;;;;;;12.81;100.00;98258.91;5039171;28;20091;-91
2021/10/18 06:58:11;;;;;;;4.47;3.30;;;;;;;12.96;100.00;98253.47;5053861;28;20037;-93
2021/10/18 07:00:37;;;;;;;6.22;2.75;;;;;;;13.03;100.00;98245.91;5038381;28;20028;-92
2021/10/18 07:03:03;;;;;;;13.60;8.88;;;;;;;13.22;100.00;98268.06;5037934;28;20037;-93
2021/10/18 07:05:29;;;;;;;14.07;6.72;;;;;;;13.03;100.00;98253.97;5055523;28;20411;-91
2021/10/18 07:07:55;;;;;;;6.35;3.75;;;;;;;12.93;100.00;98252.78;5038672;28;20024;-90
2021/10/18 07:10:21;;;;;;;8.40;3.90;;;;;;;13.20;100.00;98275.34;5039014;28;20116;-91
2021/10/18 07:12:47;;;;;;;18.80;6.43;;;;;;;13.30;100.00;98254.16;5037871;28;20144;-92
2021/10/18 07:15:13;;;;;;;5.90;3.47;;;;;;;13.46;100.00;98250.44;5054151;28;20044;-92
2021/10/18 07:17:38;;;;;;;11.60;6.68;;;;;;;13.66;100.00;98261.75;5054253;28;20128;-91
2021/10/18 07:20:06;;;;;;;28.80;11.25;;;;;;;13.80;100.00;98269.81;5037218;28;20048;-91
2021/10/18 07:22:41;;;;;;;7.97;4.75;;;;;;;13.58;100.00;98246.97;5037358;28;20029;-92
2021/10/18 07:25:07;;;;;;;23.60;4.50;;;;;;;13.79;100.00;98257.31;5038543;28;20090;-91
2021/10/18 07:27:33;;;;;;;3.85;2.97;;;;;;;13.72;100.00;98245.25;5037451;28;20032;-92
2021/10/18 07:29:59;;;;;;;7.97;4.43;;;;;;;13.97;100.00;98264.22;5054166;28;20032;-91
2021/10/18 07:32:24;;;;;;;5.15;3.40;;;;;;;14.26;100.00;98255.13;5037031;28;20032;-90
2021/10/18 07:34:50;;;;;;;8.95;3.28;;;;;;;14.01;100.00;98250.47;5053599;28;20086;-92
2021/10/18 07:37:18;;;;;;;8.88;5.68;;;;;;;14.27;100.00;98251.50;5054163;28;20033;-92
2021/10/18 07:39:44;;;;;;;3.72;2.55;;;;;;;14.67;100.00;98260.50;5036990;28;20083;-90
2021/10/18 07:42:14;;;;;;;10.75;3.83;;;;;;;14.88;100.00;98268.97;5053406;28;20033;-92
2021/10/18 07:44:40;;;;;;;7.18;2.65;;;;;;;15.07;100.00;98267.59;5046819;28;20055;-91
2021/10/18 07:47:06;;;;;;;6.65;4.15;;;;;;;15.15;98.60;98245.53;5041782;28;20033;-89
2021/10/18 07:49:36;;;;;;;11.18;4.90;;;;;;;15.35;98.08;98266.53;5060155;28;20128;-92
2021/10/18 07:52:02;;;;;;;5.28;3.60;;;;;;;15.69;95.72;98252.44;5066243;28;20039;-91
2021/10/18 07:54:30;;;;;;;10.98;5.63;;;;;;;16.27;91.42;98264.47;5058548;28;20036;-91
2021/10/18 07:56:56;;;;;;;8.27;4.47;;;;;;;16.61;87.76;98262.84;5063978;28;20032;-89
2021/10/18 07:59:41;;;;;;;7.63;4.13;;;;;;;17.00;84.29;98240.91;5033290;28;20041;-89
2021/10/18 08:02:35;;;;;;;4.95;3.13;;;;;;;17.30;81.36;98216.03;5009386;28;20029;-91
2021/10/18 08:05:24;;;;;;;6.57;3.33;;;;;;;17.75;77.67;98241.31;5036506;28;20061;-90
2021/10/18 08:07:51;;;;;;;6.35;2.55;;;;;;;18.45;74.18;98247.31;5018107;28;20037;-91
2021/10/18 08:10:24;;;;;;;6.20;2.75;;;;;;;19.82;69.57;98256.28;5036962;28;20489;-91
2021/10/18 08:12:54;;;;;;;3.88;3.42;;;;;;;21.47;60.57;98243.75;5020283;28;20076;-91
2021/10/18 08:15:21;;;;;;;2.95;2.67;;;;;;;23.58;52.97;98233.56;5036030;28;20517;-90
2021/10/18 08:17:47;;;;;;;4.55;3.38;;;;;;;25.54;45.99;98230.41;5003745;28;20465;-90
2021/10/18 08:20:12;;;;;;;2.83;2.55;;;;;;;25.01;46.98;98247.28;5019117;28;20029;-90
2021/10/18 08:22:38;;;;;;;2.40;1.67;;;;;;;21.34;53.65;98255.97;5018979;28;20028;-90
2021/10/18 08:25:07;;;;;;;3.10;2.75;;;;;;;21.26;57.70;98247.66;5021392;28;20099;-91
2021/10/18 08:27:32;;;;;;;3.90;2.58;;;;;;;22.02;55.65;98244.81;5037297;28;20575;-90
2021/10/18 08:29:58;;;;;;;3.60;2.78;;;;;;;22.14;54.23;98257.25;5041177;28;20116;-87
2021/10/18 08:32:24;;;;;;;52.35;29.73;;;;;;;21.00;59.21;98267.25;5024995;28;20071;-92
2021/10/18 08:38:48;;;;;;;43.70;23.08;;;;;;;21.06;58.08;98249.50;5063627;28;20051;-91
2021/10/18 08:52:25;;;;;;;29.77;16.83;;;;;;;21.48;55.07;98220.13;5025702;28;20041;-90
2021/10/18 11:05:28;;;;;;;15.85;9.00;;;;;;;19.35;57.71;98169.97;4938587;29;20098;-90
2021/10/18 11:07:54;;;;;;;12.82;7.53;;;;;;;19.85;56.15;98190.84;4905409;29;20042;-91
2021/10/18 11:10:23;;;;;;;14.23;7.18;;;;;;;19.65;56.04;98178.19;4954728;29;20499;-90
2021/10/18 11:12:53;;;;;;;16.08;8.15;;;;;;;19.98;55.27;98180.63;4926590;29;20023;-91
2021/10/18 11:15:24;;;;;;;14.45;8.15;;;;;;;20.08;56.30;98155.34;4924969;29;20019;-90
2021/10/18 11:17:52;;;;;;;16.50;8.30;;;;;;;20.07;57.93;98192.50;4927893;29;20028;-89
2021/10/18 11:20:23;;;;;;;14.10;7.68;;;;;;;19.99;57.85;98189.63;4930566;29;20032;-91
2021/10/18 11:22:52;;;;;;;17.77;8.30;;;;;;;19.87;57.91;98131.81;4948964;29;20034;-88
2021/10/18 11:25:22;;;;;;;14.80;7.82;;;;;;;19.92;56.19;98161.28;4931995;29;20020;-91
2021/10/18 11:28:03;;;;;;;18.02;8.80;;;;;;;19.63;59.09;98150.31;4932451;29;20027;-90
2021/10/18 11:30:30;;;;;;;13.45;8.18;;;;;;;19.37;59.71;98146.31;4928503;29;20036;-89
2021/10/18 11:33:16;;;;;;;19.13;8.35;;;;;;;19.42;58.83;98160.34;4928106;29;20035;-91
2021/10/18 11:35:43;;;;;;;17.30;7.43;;;;;;;19.42;58.59;98163.06;4944086;29;20024;-91
2021/10/18 11:38:10;;;;;;;14.00;8.07;;;;;;;19.21;59.14;98162.19;4927904;29;20028;-90
2021/10/18 11:40:48;;;;;;;13.75;8.32;;;;;;;19.75;57.24;98175.53;4928945;29;20023;-91
2021/10/18 11:43:19;;;;;;;16.58;6.60;;;;;;;19.47;57.51;98136.41;4943956;29;20126;-90
2021/10/18 11:45:50;;;;;;;12.45;6.95;;;;;;;19.53;59.05;98160.28;4922968;29;20043;-89
2021/10/18 11:48:21;;;;;;;12.00;7.25;;;;;;;19.14;58.60;98113.03;4911348;29;20024;-90
2021/10/18 11:50:52;;;;;;;16.85;8.10;;;;;;;19.05;59.92;98138.25;4944359;29;20036;-91
2021/10/18 11:53:26;;;;;;;12.95;6.32;;;;;;;18.91;59.83;98122.34;4913462;29;20492;-89
2021/10/18 11:55:59;;;;;;;8.70;6.20;;;;;;;18.92;57.51;98137.59;4931060;29;20110;-90
2021/10/18 11:58:30;;;;;;;11.02;6.50;;;;;;;18.55;58.98;98101.94;4931992;29;20412;-91
2021/10/18 12:01:02;;;;;;;14.27;7.43;;;;;;;18.74;60.70;98137.31;4934295;29;20083;-90
2021/10/18 12:03:33;;;;;;;22.75;12.45;;;;;;;18.30;61.85;98129.38;4936582;29;20107;-91
2021/10/18 12:06:19;;;;;;;10.57;6.63;;;;;;;18.71;61.23;98167.41;4918966;29;20036;-90
2021/10/18 12:08:49;;;;;;;9.60;5.45;;;;;;;18.02;61.24;98105.59;4935904;29;20534;-89
2021/10/18 12:11:18;;;;;;;11.48;5.13;;;;;;;17.91;59.94;98124.53;4937474;29;20040;-91
2021/10/18 12:13:44;;;;;;;11.40;7.50;;;;;;;17.89;63.15;98127.38;4966830;29;20038;-90
2021/10/18 12:19:47;;;;;;;11.95;6.30;;;;;;;17.52;63.86;98118.69;4954388;29;20112;-90
2021/10/18 12:22:13;;;;;;;11.55;7.10;;;;;;;17.86;62.54;98141.19;4924190;29;20062;-88
2021/10/18 12:24:38;;;;;;;34.67;22.13;;;;;;;17.95;63.70;98150.38;4957267;29;20031;-89
2021/10/18 12:27:07;;;;;;;17.52;9.55;;;;;;;18.00;64.63;98148.16;4904796;29;20036;-89
2021/10/18 12:29:40;;;;;;;12.57;7.65;;;;;;;17.93;65.98;98152.38;4907366;29;20039;-88
2021/10/18 12:32:09;;;;;;;18.58;8.88;;;;;;;18.02;64.86;98116.41;4925763;29;20036;-89
2021/10/18 12:34:35;;;;;;;19.05;9.05;;;;;;;18.08;65.55;98096.94;4927152;29;20173;-90
2021/10/18 12:37:07;;;;;;;25.20;10.50;;;;;;;18.68;64.97;98156.81;4926803;29;20051;-88
2021/10/18 12:39:32;;;;;;;;;;;;;;;18.86;62.06;98149.84;4959136;29;20031;-87
2021/10/18 12:45:35;;;;;;;11.18;6.40;;;;;;;19.11;60.62;98143.16;4935352;29;20048;-91
2021/10/18 12:48:02;;;;;;;18.65;10.07;;;;;;;19.08;61.67;98126.28;4917462;29;20488;-92
2021/10/18 12:50:30;;;;;;;10.88;7.03;;;;;;;19.32;58.13;98145.84;4909465;29;20090;-92
2021/10/18 12:53:14;;;;;;;17.63;8.25;;;;;;;19.20;60.39;98152.34;4957400;29;20035;-90
2021/10/18 12:55:40;;;;;;;17.00;7.65;;;;;;;18.76;60.20;98151.63;4955837;29;20571;-91
2021/10/18 12:58:18;;;;;;;11.30;6.68;;;;;;;18.99;61.80;98148.78;4908256;29;20031;-90
2021/10/18 13:00:45;;;;;;;11.20;6.15;;;;;;;18.94;60.84;98133.78;4923336;29;20084;-90
2021/10/18 13:03:10;;;;;;;9.93;5.30;;;;;;;19.20;60.01;98152.34;4905014;29;20052;-89
2021/10/18 13:05:50;;;;;;;9.35;5.55;;;;;;;19.25;59.48;98117.53;4918488;29;20088;-90
2021/10/18 13:08:22;;;;;;;10.32;5.63;;;;;;;19.78;56.72;98148.94;4902106;29;20412;-89
2021/10/18 13:10:50;;;;;;;19.40;6.30;;;;;;;19.99;56.88;98160.56;4902784;29;20389;-88
2021/10/18 13:13:21;;;;;;;11.27;5.47;;;;;;;20.09;56.33;98151.63;4920113;29;20034;-89
2021/10/18 13:15:47;;;;;;;12.55;5.07;;;;;;;19.99;55.26;98140.75;4905891;29;20060;-89
2021/10/18 13:18:15;;;;;;;7.13;5.18;;;;;;;19.73;56.20;98128.63;4954689;29;20047;-90
2021/10/18 13:20:45;;;;;;;10.35;5.85;;;;;;;19.68;56.32;98126.34;4907367;29;20111;-89
2021/10/18 13:23:12;;;;;;;5.88;4.40;;;;;;;19.33;55.94;98148.44;4925217;29;20038;-90
2021/10/18 13:25:41;;;;;;;6.38;4.82;;;;;;;19.09;57.76;98145.16;4944500;29;20024;-90
2021/10/18 13:28:10;;;;;;;7.22;4.90;;;;;;;19.05;58.17;98154.53;4921111;29;20182;-90
2021/10/18 13:30:40;;;;;;;8.88;5.10;;;;;;;18.60;58.62;98134.94;4907461;29;20496;-90
2021/10/18 13:36:32;;;;;;;11.57;5.10;;;;;;;18.57;59.62;98154.19;4926536;29;20043;-89
2021/10/18 13:39:01;;;;;;;9.48;5.25;;;;;;;18.25;60.95;98153.25;4938952;29;20032;-90
2021/10/18 13:41:27;;;;;;;10.43;5.93;;;;;;;18.30;61.40;98142.94;4908454;29;20027;-89
2021/10/18 13:44:05;;;;;;;12.30;6.18;;;;;;;18.40;61.55;98162.81;4930471;29;20023;-91
2021/10/18 13:46:31;;;;;;;9.65;6.28;;;;;;;18.18;62.00;98155.63;4904987;29;20032;-89
2021/10/18 13:48:56;;;;;;;12.98;6.40;;;;;;;17.94;63.66;98143.25;4948965;29;20024;-90
2021/10/18 13:51:22;;;;;;;21.95;8.63;;;;;;;17.85;64.45;98134.91;4907637;29;20042;-91
2021/10/18 13:53:50;;;;;;;15.45;6.93;;;;;;;17.87;65.87;98159.97;4926726;28;20495;-92
2021/10/18 14:00:32;;;;;;;18.77;7.88;;;;;;;17.92;66.50;98161.47;4952805;29;20464;-92
2021/10/18 14:03:01;;;;;;;17.38;6.90;;;;;;;17.40;64.14;98089.91;4928195;29;20426;-91
2021/10/18 14:05:27;;;;;;;10.90;6.63;;;;;;;17.61;65.50;98136.91;4923356;29;20035;-90